Time;durP1;ratioP1;P1;durP2;ratioP2;P2;SDS_P1;SDS_P2;PMS_P1;PMS_P2;Temp;Humidity;BMP_temperature;BMP_pressure;BME280_temperature;BME280_humidity;BME280_pressure;Samples;Min_cycle;Max_cycle;Signal;HPM_P1;HPM_P2
2024/02/09 00:01:19;;;;;;;27.37;11.30;;;;;;;;;;5052604;28;20274;-67
2024/02/09 00:03:44;;;;;;;23.52;11.05;;;;;;;;;;5052683;28;20683;-69
2024/02/09 00:06:09;;;;;;;21.75;10.65;;;;;;;;;;5052452;28;20182;-69
2024/02/09 00:08:36;;;;;;;23.80;10.35;;;;;;;;;;5051480;28;20662;-66
2024/02/09 00:11:01;;;;;;;21.93;11.60;;;;;;;;;;5052976;28;20252;-68
2024/02/09 00:13:28;;;;;;;23.67;11.73;;;;;;;;;;5052915;28;20586;-68
2024/02/09 00:15:54;;;;;;;20.93;10.20;;;;;;;;;;5051798;28;20177;-68
2024/02/09 00:18:20;;;;;;;21.88;10.07;;;;;;;;;;5049098;28;20288;-68
2024/02/09 00:20:47;;;;;;;21.55;10.48;;;;;;;;;;5022994;28;20284;-68
2024/02/09 00:23:12;;;;;;;20.30;10.20;;;;;;;;;;5022250;28;20216;-67
2024/02/09 00:25:38;;;;;;;23.55;9.60;;;;;;;;;;5035876;28;20189;-67
2024/02/09 00:28:03;;;;;;;22.20;9.43;;;;;;;;;;5033849;28;20212;-68
2024/02/09 00:30:28;;;;;;;16.02;8.30;;;;;;;;;;5033879;28;20930;-68
2024/02/09 00:32:54;;;;;;;19.80;9.57;;;;;;;;;;5046403;28;20186;-68
2024/02/09 00:35:23;;;;;;;17.25;8.90;;;;;;;;;;5051141;28;20277;-68
2024/02/09 00:37:48;;;;;;;25.07;9.47;;;;;;;;;;5052187;28;20201;-68
2024/02/09 00:40:14;;;;;;;15.73;9.47;;;;;;;;;;5035270;28;20247;-69
2024/02/09 00:42:40;;;;;;;20.50;9.60;;;;;;;;;;5044897;28;20601;-69
2024/02/09 00:45:08;;;;;;;25.93;9.23;;;;;;;;;;5050332;28;20267;-69
2024/02/09 00:47:33;;;;;;;17.03;8.93;;;;;;;;;;5051810;28;20204;-69
2024/02/09 00:49:58;;;;;;;23.88;9.52;;;;;;;;;;5054224;28;20268;-67
2024/02/09 00:52:24;;;;;;;20.13;9.82;;;;;;;;;;5051392;28;20212;-69
2024/02/09 00:54:50;;;;;;;18.77;8.53;;;;;;;;;;5050234;28;20189;-69
2024/02/09 00:57:16;;;;;;;25.03;10.17;;;;;;;;;;5033538;28;20198;-69
2024/02/09 00:59:42;;;;;;;17.03;8.63;;;;;;;;;;5046823;28;20688;-69
2024/02/09 01:02:08;;;;;;;19.40;8.80;;;;;;;;;;5030715;28;20574;-68
2024/02/09 01:04:36;;;;;;;16.47;8.77;;;;;;;;;;5053046;28;20180;-68
2024/02/09 01:07:11;;;;;;;18.43;9.50;;;;;;;;;;5035925;28;20205;-68
2024/02/09 01:09:37;;;;;;;17.17;9.43;;;;;;;;;;5047675;28;20181;-68
2024/02/09 02:46:53;;;;;;;26.53;6.03;;;;;;;;;;5036371;28;20278;-71
2024/02/09 03:05:46;;;;;;;12.20;6.00;;;;;;;;;;5030124;28;20228;-70
2024/02/09 03:08:11;;;;;;;17.00;7.10;;;;;;;;;;5014531;28;20175;-71
2024/02/09 03:10:36;;;;;;;14.43;5.95;;;;;;;;;;5027922;28;20202;-71
2024/02/09 03:13:01;;;;;;;13.85;6.55;;;;;;;;;;5039000;28;20622;-70
2024/02/09 03:15:26;;;;;;;16.30;6.68;;;;;;;;;;5039007;28;20198;-70
2024/02/09 03:17:53;;;;;;;16.80;7.55;;;;;;;;;;5036474;28;20259;-70
2024/02/09 03:20:18;;;;;;;12.60;6.55;;;;;;;;;;5014005;28;20212;-70
2024/02/09 03:22:47;;;;;;;14.25;6.43;;;;;;;;;;5036182;28;20209;-71
2024/02/09 03:25:12;;;;;;;16.53;7.30;;;;;;;;;;5034425;28;20178;-70
2024/02/09 03:27:39;;;;;;;17.63;7.43;;;;;;;;;;5033718;28;20188;-72
2024/02/09 03:30:05;;;;;;;13.73;7.40;;;;;;;;;;5013828;28;20213;-71
2024/02/09 03:32:30;;;;;;;12.32;6.07;;;;;;;;;;5038893;28;20186;-71
2024/02/09 03:35:00;;;;;;;14.77;6.80;;;;;;;;;;5015177;28;20671;-71
2024/02/09 03:37:26;;;;;;;11.00;6.00;;;;;;;;;;5032243;28;20257;-71
2024/02/09 03:39:58;;;;;;;15.10;6.93;;;;;;;;;;5019783;28;20230;-71
2024/02/09 03:42:23;;;;;;;13.93;6.30;;;;;;;;;;5035474;28;20210;-71
2024/02/09 03:44:54;;;;;;;13.40;6.68;;;;;;;;;;5021354;28;20269;-71
2024/02/09 03:47:19;;;;;;;11.85;6.20;;;;;;;;;;5034627;28;20194;-71
2024/02/09 03:49:47;;;;;;;13.05;6.10;;;;;;;;;;5029753;28;20210;-70
2024/02/09 03:52:13;;;;;;;14.63;5.90;;;;;;;;;;5037848;28;20597;-71
2024/02/09 03:54:38;;;;;;;10.50;5.32;;;;;;;;;;5026092;28;20186;-71
2024/02/09 03:57:03;;;;;;;12.13;5.90;;;;;;;;;;5032793;28;20194;-72
2024/02/09 03:59:29;;;;;;;15.13;6.28;;;;;;;;;;5028909;28;20248;-71
2024/02/09 04:01:55;;;;;;;13.88;6.15;;;;;;;;;;5034357;28;20209;-72
2024/02/09 04:04:20;;;;;;;10.65;5.28;;;;;;;;;;5032846;28;20662;-72
2024/02/09 04:06:45;;;;;;;13.88;6.32;;;;;;;;;;5037922;28;20185;-71
2024/02/09 04:09:10;;;;;;;8.82;5.03;;;;;;;;;;5030182;28;20297;-72
2024/02/09 04:11:35;;;;;;;8.73;5.20;;;;;;;;;;5035243;28;20666;-72
2024/02/09 04:14:00;;;;;;;8.63;4.55;;;;;;;;;;5031871;28;20187;-72
2024/02/09 04:16:26;;;;;;;8.30;4.70;;;;;;;;;;5038044;28;20178;-70
2024/02/09 04:18:51;;;;;;;9.63;5.22;;;;;;;;;;5023648;28;20789;-71
2024/02/09 04:21:16;;;;;;;7.68;4.55;;;;;;;;;;5037798;28;20628;-71
2024/02/09 04:23:42;;;;;;;8.00;4.40;;;;;;;;;;5031301;28;20212;-71
2024/02/09 04:26:08;;;;;;;9.43;4.30;;;;;;;;;;5013483;28;20174;-71
2024/02/09 04:28:33;;;;;;;11.38;4.90;;;;;;;;;;5030584;28;20193;-71
2024/02/09 04:30:59;;;;;;;14.87;4.70;;;;;;;;;;5037153;28;20182;-71
2024/02/09 04:33:24;;;;;;;7.53;4.40;;;;;;;;;;5032142;28;20269;-72
2024/02/09 04:35:49;;;;;;;8.95;4.38;;;;;;;;;;5036438;28;20187;-71
2024/02/09 04:38:15;;;;;;;12.20;4.40;;;;;;;;;;5008000;28;20182;-71
2024/02/09 04:40:41;;;;;;;8.00;4.03;;;;;;;;;;5026398;28;20213;-72
2024/02/09 04:43:06;;;;;;;8.07;4.15;;;;;;;;;;5035198;28;20210;-71
2024/02/09 04:45:32;;;;;;;5.90;3.87;;;;;;;;;;5029830;28;20181;-71
2024/02/09 04:47:57;;;;;;;9.23;4.47;;;;;;;;;;5037468;28;20558;-71
2024/02/09 04:50:22;;;;;;;10.27;3.55;;;;;;;;;;5032289;28;20288;-71
2024/02/09 04:52:48;;;;;;;7.80;3.50;;;;;;;;;;5023749;28;20705;-71
2024/02/09 04:55:14;;;;;;;7.25;3.58;;;;;;;;;;5036533;28;20208;-71
2024/02/09 04:57:42;;;;;;;7.38;4.00;;;;;;;;;;5011401;28;20190;-71
2024/02/09 05:00:07;;;;;;;6.07;3.75;;;;;;;;;;5035771;28;20292;-71
2024/02/09 05:02:33;;;;;;;6.80;3.53;;;;;;;;;;5021291;28;20681;-72
2024/02/09 05:04:59;;;;;;;7.17;4.10;;;;;;;;;;5044096;28;20680;-72
2024/02/09 05:07:24;;;;;;;6.67;3.57;;;;;;;;;;5016200;28;20205;-70
2024/02/09 05:09:49;;;;;;;6.60;4.13;;;;;;;;;;5021245;28;20282;-72
2024/02/09 05:12:14;;;;;;;7.83;4.10;;;;;;;;;;5037477;28;20248;-70
2024/02/09 05:14:40;;;;;;;5.72;3.80;;;;;;;;;;5041189;28;20181;-70
2024/02/09 05:17:05;;;;;;;9.27;4.10;;;;;;;;;;5042530;28;20186;-71
2024/02/09 05:19:30;;;;;;;12.13;3.70;;;;;;;;;;5029379;28;20281;-71
2024/02/09 05:21:57;;;;;;;13.57;4.20;;;;;;;;;;5038447;28;20557;-70
2024/02/09 05:24:23;;;;;;;11.63;4.45;;;;;;;;;;5031981;28;20177;-71
2024/02/09 05:26:49;;;;;;;8.18;4.55;;;;;;;;;;5031985;28;20697;-71
2024/02/09 05:29:14;;;;;;;7.93;3.87;;;;;;;;;;5007189;28;20206;-71
2024/02/09 05:31:41;;;;;;;8.87;4.40;;;;;;;;;;5032924;28;20529;-71
2024/02/09 05:34:07;;;;;;;13.27;4.60;;;;;;;;;;5016142;28;20201;-71
2024/02/09 05:36:32;;;;;;;11.30;4.03;;;;;;;;;;5012646;28;20182;-71
2024/02/09 05:38:58;;;;;;;6.60;3.83;;;;;;;;;;5015234;28;20221;-72
2024/02/09 05:41:24;;;;;;;6.95;3.92;;;;;;;;;;5032184;28;20194;-71
2024/02/09 05:43:52;;;;;;;12.97;4.07;;;;;;;;;;5040633;28;20530;-72
2024/02/09 05:46:17;;;;;;;8.70;4.03;;;;;;;;;;5020789;28;20532;-71
2024/02/09 05:48:43;;;;;;;5.97;3.97;;;;;;;;;;5029208;28;20226;-71
2024/02/09 05:51:10;;;;;;;11.52;4.32;;;;;;;;;;5031720;28;20499;-71
2024/02/09 05:53:35;;;;;;;6.03;3.60;;;;;;;;;;5026356;28;20178;-71
2024/02/09 05:56:01;;;;;;;9.88;4.85;;;;;;;;;;5005211;28;20189;-71
2024/02/09 05:58:27;;;;;;;12.10;5.00;;;;;;;;;;5031571;28;20575;-71
2024/02/09 06:00:52;;;;;;;7.47;4.33;;;;;;;;;;5016303;28;20662;-71
2024/02/09 06:03:17;;;;;;;7.47;4.00;;;;;;;;;;5030025;28;20208;-69
2024/02/09 06:05:43;;;;;;;9.33;4.27;;;;;;;;;;5012641;28;20196;-71
2024/02/09 06:08:08;;;;;;;11.90;3.50;;;;;;;;;;5024057;28;20174;-71
2024/02/09 06:10:34;;;;;;;6.07;3.53;;;;;;;;;;5027170;28;20241;-70
2024/02/09 06:12:59;;;;;;;8.18;4.35;;;;;;;;;;5029638;28;20204;-71
2024/02/09 06:15:24;;;;;;;5.30;3.88;;;;;;;;;;5027019;28;20179;-71
2024/02/09 06:17:49;;;;;;;8.27;4.20;;;;;;;;;;5035163;28;20268;-71
2024/02/09 06:20:22;;;;;;;7.05;3.90;;;;;;;;;;5028347;28;20202;-69
2024/02/09 06:22:47;;;;;;;5.68;4.03;;;;;;;;;;5034583;28;20216;-71
2024/02/09 06:25:12;;;;;;;10.73;3.47;;;;;;;;;;5033374;28;20197;-71
2024/02/09 06:27:38;;;;;;;7.70;4.10;;;;;;;;;;5034207;28;20652;-71
2024/02/09 06:30:03;;;;;;;14.67;4.57;;;;;;;;;;5020301;28;20285;-71
2024/02/09 06:32:31;;;;;;;7.03;3.67;;;;;;;;;;5013071;28;20182;-70
2024/02/09 06:34:56;;;;;;;8.85;4.07;;;;;;;;;;5015042;28;20316;-69
2024/02/09 06:37:22;;;;;;;7.85;3.72;;;;;;;;;;5030735;28;20269;-70
2024/02/09 06:39:48;;;;;;;9.02;4.05;;;;;;;;;;5041529;28;20636;-71
2024/02/09 06:42:13;;;;;;;7.80;3.95;;;;;;;;;;5028549;28;20202;-71
2024/02/09 06:44:43;;;;;;;6.45;3.88;;;;;;;;;;5013002;28;20323;-71
2024/02/09 06:47:12;;;;;;;6.28;3.47;;;;;;;;;;5026057;28;20193;-71
2024/02/09 06:49:37;;;;;;;7.47;3.30;;;;;;;;;;5023695;28;20210;-71
2024/02/09 06:52:04;;;;;;;11.95;4.03;;;;;;;;;;5027828;28;20190;-71
2024/02/09 06:54:29;;;;;;;6.70;3.95;;;;;;;;;;5024229;28;20182;-71
2024/02/09 06:56:55;;;;;;;10.10;2.93;;;;;;;;;;5023478;28;20504;-71
2024/02/09 06:59:22;;;;;;;14.85;3.60;;;;;;;;;;5021310;28;20704;-72
2024/02/09 07:01:47;;;;;;;9.80;3.38;;;;;;;;;;5021447;28;20201;-70
2024/02/09 07:04:17;;;;;;;6.97;3.22;;;;;;;;;;5025208;28;20185;-72
2024/02/09 07:06:47;;;;;;;12.05;3.85;;;;;;;;;;5028865;28;20174;-71
2024/02/09 07:09:17;;;;;;;6.28;3.30;;;;;;;;;;5010706;28;20199;-72
2024/02/09 07:11:43;;;;;;;11.82;3.67;;;;;;;;;;5011935;28;20183;-71
2024/02/09 07:14:08;;;;;;;8.18;3.70;;;;;;;;;;5029585;28;20244;-70
2024/02/09 07:16:34;;;;;;;8.10;3.53;;;;;;;;;;5030744;28;20187;-72
2024/02/09 07:18:59;;;;;;;4.10;3.17;;;;;;;;;;5025873;28;20222;-72
2024/02/09 07:21:24;;;;;;;7.05;3.00;;;;;;;;;;5011380;28;20197;-70
2024/02/09 07:23:51;;;;;;;9.07;3.45;;;;;;;;;;5025829;28;20198;-73
2024/02/09 07:26:16;;;;;;;10.30;3.90;;;;;;;;;;5031605;28;20175;-71
2024/02/09 07:28:42;;;;;;;8.90;2.93;;;;;;;;;;5031902;28;20240;-72
2024/02/09 07:31:08;;;;;;;11.43;3.55;;;;;;;;;;5030078;28;20173;-72
2024/02/09 07:33:34;;;;;;;5.32;3.65;;;;;;;;;;5022065;28;20201;-72
2024/02/09 07:35:59;;;;;;;10.32;3.20;;;;;;;;;;5028479;28;20182;-71
2024/02/09 07:38:24;;;;;;;8.65;4.32;;;;;;;;;;5025823;28;20194;-71
2024/02/09 07:40:49;;;;;;;7.10;3.50;;;;;;;;;;5028149;28;20186;-71
2024/02/09 07:43:14;;;;;;;9.63;3.35;;;;;;;;;;5032345;28;20686;-70
2024/02/09 07:45:40;;;;;;;5.90;3.13;;;;;;;;;;5031683;28;20182;-71
2024/02/09 07:48:05;;;;;;;8.65;2.95;;;;;;;;;;5032500;28;20166;-70
2024/02/09 07:50:30;;;;;;;7.35;3.05;;;;;;;;;;5034228;28;20196;-70
2024/02/09 07:52:55;;;;;;;7.93;3.88;;;;;;;;;;5034540;28;20174;-72
2024/02/09 07:55:23;;;;;;;8.75;3.47;;;;;;;;;;5026381;28;20579;-72
2024/02/09 07:57:48;;;;;;;6.50;4.00;;;;;;;;;;5029618;28;20178;-73
2024/02/09 08:00:18;;;;;;;8.82;3.83;;;;;;;;;;5031543;28;20194;-72
2024/02/09 08:02:43;;;;;;;8.43;3.17;;;;;;;;;;5014207;28;20624;-73
2024/02/09 08:05:17;;;;;;;5.68;3.42;;;;;;;;;;5033368;28;20178;-73
2024/02/09 08:07:42;;;;;;;12.02;3.38;;;;;;;;;;5028466;28;20179;-73
2024/02/09 08:10:09;;;;;;;9.48;3.50;;;;;;;;;;5033634;28;20197;-73
2024/02/09 08:12:34;;;;;;;7.15;3.40;;;;;;;;;;5031100;28;20666;-72
2024/02/09 08:14:59;;;;;;;6.10;3.47;;;;;;;;;;5034189;28;20206;-73
2024/02/09 08:17:24;;;;;;;7.00;3.40;;;;;;;;;;5032562;28;20235;-72
2024/02/09 08:19:51;;;;;;;8.73;3.70;;;;;;;;;;5029168;28;20566;-72
2024/02/09 08:22:22;;;;;;;7.90;3.17;;;;;;;;;;5032217;28;20619;-73
2024/02/09 08:24:47;;;;;;;9.73;3.85;;;;;;;;;;5031031;28;20230;-73
2024/02/09 08:27:12;;;;;;;8.57;3.67;;;;;;;;;;5013620;28;20266;-73
2024/02/09 08:29:37;;;;;;;8.38;3.50;;;;;;;;;;5031691;28;20193;-73
2024/02/09 08:32:04;;;;;;;7.53;3.65;;;;;;;;;;5031902;28;20170;-72
2024/02/09 08:34:29;;;;;;;6.60;3.28;;;;;;;;;;5031055;28;20174;-73
2024/02/09 08:36:55;;;;;;;11.00;3.70;;;;;;;;;;5031855;28;20775;-72
2024/02/09 08:39:20;;;;;;;7.30;3.55;;;;;;;;;;5015653;28;20205;-72
2024/02/09 08:41:45;;;;;;;4.70;2.92;;;;;;;;;;5031730;28;20284;-72
2024/02/09 08:44:10;;;;;;;7.60;3.38;;;;;;;;;;5033145;28;20229;-72
2024/02/09 08:46:36;;;;;;;6.15;3.13;;;;;;;;;;5033167;28;20660;-72
2024/02/09 08:49:01;;;;;;;6.65;3.20;;;;;;;;;;5024308;28;20206;-73
2024/02/09 08:51:26;;;;;;;5.97;2.70;;;;;;;;;;5029425;28;20225;-73
2024/02/09 08:53:51;;;;;;;6.57;3.08;;;;;;;;;;5020535;28;20175;-73
2024/02/09 08:56:17;;;;;;;6.28;2.70;;;;;;;;;;5027466;28;20175;-72
2024/02/09 08:58:42;;;;;;;8.82;2.78;;;;;;;;;;5031962;28;20198;-72
2024/02/09 09:01:07;;;;;;;9.02;2.97;;;;;;;;;;5033585;28;20612;-72
2024/02/09 09:03:33;;;;;;;9.00;3.20;;;;;;;;;;5031062;28;20240;-72
2024/02/09 09:05:59;;;;;;;6.63;2.33;;;;;;;;;;5032212;28;20562;-72
2024/02/09 09:08:25;;;;;;;6.95;3.00;;;;;;;;;;5028776;28;20178;-72
2024/02/09 09:10:51;;;;;;;7.00;3.08;;;;;;;;;;5028346;28;21506;-73
2024/02/09 09:13:16;;;;;;;5.50;2.55;;;;;;;;;;5033569;28;20658;-73
2024/02/09 09:15:42;;;;;;;7.78;3.30;;;;;;;;;;5033518;28;20272;-73
2024/02/09 09:18:07;;;;;;;3.72;2.55;;;;;;;;;;5026636;28;20241;-73
2024/02/09 09:20:34;;;;;;;8.75;3.38;;;;;;;;;;5013953;28;20206;-72
2024/02/09 09:23:01;;;;;;;6.22;3.22;;;;;;;;;;5025624;28;20198;-72
2024/02/09 09:25:26;;;;;;;9.70;3.47;;;;;;;;;;5030733;28;20178;-72
2024/02/09 09:27:51;;;;;;;5.70;3.25;;;;;;;;;;5031434;28;20174;-74
2024/02/09 09:30:17;;;;;;;6.25;3.30;;;;;;;;;;5029778;28;20197;-73
2024/02/09 09:32:42;;;;;;;10.85;3.17;;;;;;;;;;5012970;28;20565;-72
2024/02/09 09:35:08;;;;;;;6.97;2.97;;;;;;;;;;5033106;28;20604;-72
2024/02/09 09:37:33;;;;;;;8.40;3.08;;;;;;;;;;5033109;28;20179;-72
2024/02/09 09:39:58;;;;;;;5.97;2.88;;;;;;;;;;5029373;28;20712;-72
2024/02/09 09:42:26;;;;;;;4.90;3.08;;;;;;;;;;5032445;28;20194;-73
2024/02/09 09:44:52;;;;;;;4.45;2.92;;;;;;;;;;5014217;28;20206;-73
2024/02/09 09:47:20;;;;;;;8.07;3.72;;;;;;;;;;5030227;28;20171;-72
2024/02/09 09:49:47;;;;;;;6.13;3.03;;;;;;;;;;5013301;28;20260;-72
2024/02/09 09:52:15;;;;;;;4.93;2.90;;;;;;;;;;5024696;28;20572;-72
2024/02/09 09:54:40;;;;;;;8.77;3.15;;;;;;;;;;5012570;28;20236;-73
2024/02/09 09:57:07;;;;;;;8.05;3.00;;;;;;;;;;5012542;28;20174;-72
2024/02/09 09:59:33;;;;;;;4.70;2.97;;;;;;;;;;5012512;28;20194;-72
2024/02/09 10:01:58;;;;;;;6.80;2.88;;;;;;;;;;5031717;28;20674;-72
2024/02/09 10:04:23;;;;;;;10.48;3.75;;;;;;;;;;5031467;28;20166;-72
2024/02/09 10:06:49;;;;;;;4.10;3.20;;;;;;;;;;5032173;28;20178;-72
2024/02/09 10:09:16;;;;;;;3.50;2.67;;;;;;;;;;5013767;28;20245;-73
2024/02/09 10:11:42;;;;;;;3.85;2.83;;;;;;;;;;5026769;28;20174;-73
2024/02/09 10:14:15;;;;;;;6.55;2.60;;;;;;;;;;5025499;28;20240;-72
2024/02/09 10:16:41;;;;;;;8.70;2.67;;;;;;;;;;5031040;28;20173;-72
2024/02/09 10:19:07;;;;;;;8.40;3.22;;;;;;;;;;5012232;28;20194;-72
2024/02/09 10:21:34;;;;;;;6.70;2.90;;;;;;;;;;5032547;28;20252;-72
2024/02/09 10:24:00;;;;;;;3.47;2.13;;;;;;;;;;5012382;28;20176;-72
2024/02/09 10:26:25;;;;;;;5.80;2.58;;;;;;;;;;5011726;28;20291;-72
2024/02/09 10:28:52;;;;;;;2.67;1.85;;;;;;;;;;5029366;28;20225;-72
2024/02/09 10:31:18;;;;;;;2.97;1.58;;;;;;;;;;5007465;28;20178;-72
2024/02/09 10:33:44;;;;;;;3.00;2.03;;;;;;;;;;5028704;28;20173;-72
2024/02/09 10:36:11;;;;;;;5.43;1.67;;;;;;;;;;5012364;28;20172;-72
2024/02/09 10:38:37;;;;;;;4.43;1.88;;;;;;;;;;5031924;28;20175;-73
2024/02/09 10:41:02;;;;;;;2.97;1.80;;;;;;;;;;5033197;28;20229;-72
2024/02/09 10:43:28;;;;;;;4.85;2.15;;;;;;;;;;5032211;28;20197;-71
2024/02/09 10:45:54;;;;;;;4.38;1.92;;;;;;;;;;5035273;28;20261;-72
2024/02/09 10:48:24;;;;;;;4.75;1.80;;;;;;;;;;5018162;28;20273;-73
2024/02/09 10:50:54;;;;;;;6.18;2.22;;;;;;;;;;5024787;28;20237;-72
2024/02/09 10:53:23;;;;;;;9.65;2.45;;;;;;;;;;5026168;28;20167;-72
2024/02/09 10:55:52;;;;;;;3.92;1.98;;;;;;;;;;5023482;28;20211;-72
2024/02/09 10:58:19;;;;;;;5.38;2.25;;;;;;;;;;5027376;28;20186;-72
2024/02/09 11:00:44;;;;;;;4.45;2.58;;;;;;;;;;5027448;28;20269;-72
2024/02/09 11:03:09;;;;;;;6.18;3.03;;;;;;;;;;5033522;28;20254;-72
2024/02/09 11:05:36;;;;;;;4.57;2.15;;;;;;;;;;5037020;28;20209;-73
2024/02/09 11:08:02;;;;;;;3.58;2.30;;;;;;;;;;5035458;28;20236;-72
2024/02/09 11:10:28;;;;;;;4.90;2.17;;;;;;;;;;5018658;28;20221;-73
2024/02/09 11:12:57;;;;;;;6.53;3.72;;;;;;;;;;5036863;28;20201;-73
2024/02/09 11:15:22;;;;;;;4.80;2.45;;;;;;;;;;5029906;28;20178;-73
2024/02/09 11:17:49;;;;;;;6.07;2.80;;;;;;;;;;5014555;28;20205;-72
2024/02/09 11:20:15;;;;;;;11.85;2.90;;;;;;;;;;5030072;28;20194;-73
2024/02/09 11:22:44;;;;;;;5.65;2.50;;;;;;;;;;5018707;28;20751;-72
2024/02/09 11:25:11;;;;;;;3.47;2.35;;;;;;;;;;5035878;28;20208;-73
2024/02/09 11:27:39;;;;;;;9.05;2.80;;;;;;;;;;5035457;28;20170;-73
2024/02/09 11:30:05;;;;;;;7.72;3.00;;;;;;;;;;5035622;28;20687;-73
2024/02/09 11:32:31;;;;;;;6.25;3.00;;;;;;;;;;5027148;28;20820;-73
2024/02/09 11:34:57;;;;;;;8.38;2.83;;;;;;;;;;5009504;28;20252;-73
2024/02/09 11:37:23;;;;;;;7.20;3.13;;;;;;;;;;5014916;28;20657;-72
2024/02/09 11:39:49;;;;;;;5.03;2.78;;;;;;;;;;5015540;28;20252;-73
2024/02/09 11:42:14;;;;;;;7.25;3.30;;;;;;;;;;5028784;28;20690;-73
2024/02/09 11:44:40;;;;;;;8.50;3.45;;;;;;;;;;5031010;28;20182;-73
2024/02/09 11:47:05;;;;;;;7.22;2.92;;;;;;;;;;5013173;28;20186;-72
2024/02/09 11:49:30;;;;;;;8.02;3.10;;;;;;;;;;5027145;28;20217;-72
2024/02/09 11:52:03;;;;;;;7.10;3.63;;;;;;;;;;5033318;28;20586;-73
2024/02/09 11:54:29;;;;;;;5.53;2.72;;;;;;;;;;5033231;28;20182;-72
2024/02/09 11:56:57;;;;;;;7.35;3.47;;;;;;;;;;5030192;28;20174;-72
2024/02/09 11:59:23;;;;;;;4.68;3.28;;;;;;;;;;5017441;28;20198;-72
2024/02/09 12:01:53;;;;;;;12.00;3.00;;;;;;;;;;5032887;28;20297;-72
2024/02/09 12:04:18;;;;;;;10.32;3.15;;;;;;;;;;5030649;28;20164;-73
2024/02/09 12:06:44;;;;;;;5.20;2.65;;;;;;;;;;5035737;28;20664;-72
2024/02/09 12:09:09;;;;;;;3.97;2.33;;;;;;;;;;5027918;28;20190;-72
2024/02/09 12:11:35;;;;;;;4.82;2.70;;;;;;;;;;5033484;28;20197;-72
2024/02/09 12:14:00;;;;;;;6.30;2.78;;;;;;;;;;5016624;28;20188;-72
2024/02/09 12:16:25;;;;;;;8.15;2.83;;;;;;;;;;5030135;28;20391;-72
2024/02/09 12:18:55;;;;;;;8.30;2.65;;;;;;;;;;5012012;28;20201;-72
2024/02/09 12:21:20;;;;;;;10.63;2.70;;;;;;;;;;5015366;28;20227;-72
2024/02/09 12:23:45;;;;;;;3.25;2.10;;;;;;;;;;5032765;28;20884;-72
2024/02/09 12:26:12;;;;;;;6.28;2.55;;;;;;;;;;5019149;28;20530;-72
2024/02/09 12:28:38;;;;;;;6.05;2.40;;;;;;;;;;5023487;28;20301;-72
2024/02/09 12:31:07;;;;;;;3.30;2.08;;;;;;;;;;5037729;28;20257;-72
2024/02/09 12:33:35;;;;;;;5.63;2.30;;;;;;;;;;5030186;28;20174;-72
2024/02/09 12:36:08;;;;;;;6.60;1.63;;;;;;;;;;5028478;28;20207;-73
2024/02/09 12:38:40;;;;;;;5.13;1.75;;;;;;;;;;5037004;28;20669;-72
2024/02/09 12:41:05;;;;;;;4.15;2.38;;;;;;;;;;5033015;28;20280;-72
2024/02/09 12:43:30;;;;;;;3.28;2.03;;;;;;;;;;5030254;28;20347;-72
2024/02/09 12:45:56;;;;;;;5.28;1.75;;;;;;;;;;5033182;28;20174;-72
2024/02/09 12:48:21;;;;;;;5.57;1.75;;;;;;;;;;5030942;28;20743;-72
2024/02/09 12:50:52;;;;;;;10.13;2.42;;;;;;;;;;5030033;28;20194;-73
2024/02/09 12:53:17;;;;;;;5.60;3.00;;;;;;;;;;5013067;28;20197;-72
2024/02/09 12:55:46;;;;;;;6.63;1.83;;;;;;;;;;5033611;28;20557;-72
2024/02/09 12:58:12;;;;;;;4.95;2.50;;;;;;;;;;5029976;28;20597;-72
2024/02/09 13:00:37;;;;;;;7.53;2.08;;;;;;;;;;5035706;28;20228;-72
2024/02/09 13:03:02;;;;;;;4.03;1.88;;;;;;;;;;5032567;28;20237;-73
2024/02/09 13:05:30;;;;;;;4.85;1.77;;;;;;;;;;5026927;28;20550;-73
2024/02/09 13:07:57;;;;;;;4.88;2.08;;;;;;;;;;5011112;28;20186;-72
2024/02/09 13:10:22;;;;;;;5.07;1.77;;;;;;;;;;5028288;28;20206;-72
2024/02/09 13:12:47;;;;;;;3.33;1.83;;;;;;;;;;5029176;28;20186;-72
2024/02/09 13:15:13;;;;;;;3.25;2.25;;;;;;;;;;5030558;28;20216;-72
2024/02/09 13:17:39;;;;;;;4.30;1.83;;;;;;;;;;5032116;28;20214;-72
2024/02/09 13:20:08;;;;;;;5.10;1.73;;;;;;;;;;5030526;28;20203;-72
2024/02/09 13:22:33;;;;;;;2.55;1.55;;;;;;;;;;5029854;28;20202;-72
2024/02/09 13:24:59;;;;;;;6.25;2.30;;;;;;;;;;5029241;28;20181;-72
2024/02/09 13:27:24;;;;;;;10.00;1.95;;;;;;;;;;5031908;28;20193;-71
2024/02/09 13:29:50;;;;;;;3.65;1.55;;;;;;;;;;5013251;28;20208;-71
2024/02/09 13:32:16;;;;;;;2.65;1.10;;;;;;;;;;5012564;28;20190;-73
2024/02/09 13:34:41;;;;;;;3.47;1.50;;;;;;;;;;5011952;28;20185;-73
2024/02/09 13:37:07;;;;;;;4.28;2.10;;;;;;;;;;5027343;28;20231;-73
2024/02/09 13:39:32;;;;;;;5.65;1.60;;;;;;;;;;5016521;28;20295;-72
2024/02/09 13:41:58;;;;;;;3.15;1.70;;;;;;;;;;5015902;28;20209;-71
2024/02/09 13:44:23;;;;;;;7.55;2.13;;;;;;;;;;5034116;28;20642;-72
2024/02/09 13:46:48;;;;;;;6.25;1.85;;;;;;;;;;5014813;28;20186;-73
2024/02/09 13:49:13;;;;;;;5.57;1.38;;;;;;;;;;5029263;28;20206;-72
2024/02/09 13:51:38;;;;;;;4.35;1.23;;;;;;;;;;5033516;28;20661;-72
2024/02/09 13:54:05;;;;;;;4.68;1.67;;;;;;;;;;5015475;28;20185;-72
2024/02/09 13:56:31;;;;;;;2.63;1.55;;;;;;;;;;5027225;28;20187;-72
2024/02/09 13:58:57;;;;;;;3.20;1.55;;;;;;;;;;5031679;28;20308;-72
2024/02/09 14:01:22;;;;;;;3.28;1.60;;;;;;;;;;5028551;28;20178;-72
2024/02/09 14:03:51;;;;;;;2.60;1.50;;;;;;;;;;5034211;28;20209;-72
2024/02/09 14:06:19;;;;;;;5.18;2.08;;;;;;;;;;5025916;28;20313;-74
2024/02/09 14:08:45;;;;;;;5.43;1.65;;;;;;;;;;5026437;28;20226;-72
2024/02/09 14:11:12;;;;;;;2.03;1.15;;;;;;;;;;5027798;28;20206;-72
2024/02/09 14:13:38;;;;;;;5.50;2.65;;;;;;;;;;5012280;28;20190;-72
2024/02/09 14:16:05;;;;;;;2.67;1.52;;;;;;;;;;5028137;28;20571;-72
2024/02/09 14:18:30;;;;;;;2.58;1.70;;;;;;;;;;5028814;28;20402;-72
2024/02/09 14:20:56;;;;;;;3.35;1.50;;;;;;;;;;5031381;28;20193;-72
2024/02/09 14:23:22;;;;;;;4.88;1.60;;;;;;;;;;5034443;28;20282;-72
2024/02/09 14:25:48;;;;;;;3.38;1.58;;;;;;;;;;5030633;28;20181;-72
2024/02/09 14:28:14;;;;;;;5.18;1.48;;;;;;;;;;5024170;28;20200;-73
2024/02/09 14:30:41;;;;;;;3.88;1.25;;;;;;;;;;5035542;28;20228;-71
2024/02/09 14:33:07;;;;;;;3.88;1.70;;;;;;;;;;5025744;28;20205;-72
2024/02/09 14:35:32;;;;;;;5.90;1.52;;;;;;;;;;5032126;28;21225;-72
2024/02/09 14:38:00;;;;;;;4.70;1.42;;;;;;;;;;5030199;28;20189;-72
2024/02/09 14:40:25;;;;;;;5.40;1.50;;;;;;;;;;5026731;28;20218;-71
2024/02/09 14:42:51;;;;;;;5.15;1.40;;;;;;;;;;5035287;28;20627;-71
2024/02/09 14:45:16;;;;;;;2.92;1.20;;;;;;;;;;5016187;28;20252;-70
2024/02/09 14:47:43;;;;;;;2.42;1.40;;;;;;;;;;5031744;28;20916;-71
2024/02/09 14:50:08;;;;;;;2.90;1.48;;;;;;;;;;5028714;28;20228;-71
2024/02/09 14:52:35;;;;;;;8.27;2.15;;;;;;;;;;5032845;28;20650;-71
2024/02/09 14:55:00;;;;;;;5.13;1.55;;;;;;;;;;5014883;28;20186;-72
2024/02/09 14:57:25;;;;;;;3.22;1.52;;;;;;;;;;5028216;28;20182;-71
2024/02/09 14:59:51;;;;;;;6.07;1.65;;;;;;;;;;5018148;28;20198;-72
2024/02/09 15:02:16;;;;;;;4.20;1.60;;;;;;;;;;5032392;28;20205;-72
2024/02/09 15:04:41;;;;;;;2.88;1.58;;;;;;;;;;5037515;28;20174;-70
2024/02/09 15:07:07;;;;;;;6.85;1.83;;;;;;;;;;5032103;28;20288;-71
2024/02/09 15:09:32;;;;;;;4.75;1.77;;;;;;;;;;5027850;28;20209;-71
2024/02/09 15:12:01;;;;;;;4.15;1.50;;;;;;;;;;5033384;28;20177;-71
2024/02/09 15:14:27;;;;;;;7.53;1.90;;;;;;;;;;5029230;28;20209;-70
2024/02/09 15:16:55;;;;;;;5.18;1.73;;;;;;;;;;5011601;28;20182;-70
2024/02/09 15:19:20;;;;;;;9.77;2.17;;;;;;;;;;5029882;28;20198;-71
2024/02/09 15:21:50;;;;;;;5.18;1.75;;;;;;;;;;5027717;28;21862;-70
2024/02/09 15:24:16;;;;;;;6.38;1.85;;;;;;;;;;5026217;28;20591;-71
2024/02/09 15:26:42;;;;;;;2.65;1.52;;;;;;;;;;5029609;28;20270;-70
2024/02/09 15:29:08;;;;;;;4.13;1.75;;;;;;;;;;5027919;28;20281;-72
2024/02/09 15:31:34;;;;;;;4.97;1.88;;;;;;;;;;5029996;28;20191;-72
2024/02/09 15:33:59;;;;;;;4.30;1.80;;;;;;;;;;5035986;28;20182;-70
2024/02/09 15:36:26;;;;;;;5.65;2.03;;;;;;;;;;5016020;28;20650;-70
2024/02/09 15:38:52;;;;;;;4.70;2.25;;;;;;;;;;5033627;28;20218;-69
2024/02/09 15:41:19;;;;;;;4.15;1.65;;;;;;;;;;5016170;28;20236;-70
2024/02/09 15:43:44;;;;;;;5.90;2.08;;;;;;;;;;5038796;28;20216;-70
2024/02/09 15:46:15;;;;;;;4.88;1.92;;;;;;;;;;5037045;28;20181;-71
2024/02/09 15:48:41;;;;;;;2.80;1.67;;;;;;;;;;5035001;28;20613;-71
2024/02/09 15:51:07;;;;;;;3.45;1.60;;;;;;;;;;5032508;28;20249;-70
2024/02/09 15:53:32;;;;;;;4.13;1.70;;;;;;;;;;5033471;28;20190;-71
2024/02/09 15:55:58;;;;;;;12.40;1.38;;;;;;;;;;5014505;28;20193;-72
2024/02/09 15:58:24;;;;;;;6.15;1.27;;;;;;;;;;5034841;28;20174;-71
2024/02/09 16:00:49;;;;;;;2.08;1.10;;;;;;;;;;5010802;28;20185;-70
2024/02/09 16:03:18;;;;;;;6.18;1.30;;;;;;;;;;5032544;28;20708;-71
2024/02/09 16:05:43;;;;;;;2.75;1.17;;;;;;;;;;5034204;28;20166;-71
2024/02/09 16:08:10;;;;;;;2.65;1.27;;;;;;;;;;5032817;28;20213;-71
2024/02/09 16:10:35;;;;;;;9.32;1.50;;;;;;;;;;5011198;28;20291;-71
2024/02/09 16:13:01;;;;;;;5.03;1.77;;;;;;;;;;5030782;28;20227;-69
2024/02/09 16:15:26;;;;;;;7.80;1.60;;;;;;;;;;5032768;28;20185;-71
2024/02/09 16:17:51;;;;;;;3.40;1.10;;;;;;;;;;5014560;28;20193;-71
2024/02/09 16:20:17;;;;;;;5.80;1.63;;;;;;;;;;5034743;28;20202;-69
2024/02/09 16:22:43;;;;;;;3.58;1.25;;;;;;;;;;5029322;28;20301;-71